Time;durP1;ratioP1;P1;durP2;ratioP2;P2;SDS_P1;SDS_P2;PMS_P1;PMS_P2;Temp;Humidity;BMP_temperature;BMP_pressure;BME280_temperature;BME280_humidity;BME280_pressure;Samples;Min_cycle;Max_cycle;Signal;HPM_P1;HPM_P2
2022/08/18 00:02:24;;;;;;;;;;;23.00;80.40;;;;;;4994526;28;19965;-77
2022/08/18 00:04:51;;;;;;;;;;;23.00;80.40;;;;;;5017423;28;19925;-80
2022/08/18 00:07:19;;;;;;;;;;;23.00;80.50;;;;;;4998837;28;19925;-80
2022/08/18 00:09:48;;;;;;;;;;;22.90;80.70;;;;;;5022693;28;20462;-78
2022/08/18 00:12:15;;;;;;;;;;;22.90;80.70;;;;;;5023003;28;19933;-80
2022/08/18 00:14:43;;;;;;;;;;;22.90;80.80;;;;;;5008855;28;19925;-79
2022/08/18 00:17:10;;;;;;;;;;;22.90;80.80;;;;;;5028445;28;19926;-79
2022/08/18 00:19:37;;;;;;;;;;;22.90;80.60;;;;;;5024729;28;20064;-79
2022/08/18 00:22:04;;;;;;;;;;;22.80;80.50;;;;;;5016348;28;20384;-77
2022/08/18 00:24:31;;;;;;;;;;;22.80;80.60;;;;;;5017375;28;19933;-79
2022/08/18 00:26:59;;;;;;;;;;;22.80;80.70;;;;;;5017051;28;20339;-78
2022/08/18 00:29:26;;;;;;;;;;;22.80;80.80;;;;;;4996795;28;19926;-79
2022/08/18 00:31:52;;;;;;;;;;;22.70;81.00;;;;;;5013963;28;19941;-82
2022/08/18 00:34:19;;;;;;;;;;;22.70;81.00;;;;;;5017620;28;20055;-79
2022/08/18 00:36:46;;;;;;;;;;;22.70;81.10;;;;;;5013554;28;19930;-78
2022/08/18 00:39:13;;;;;;;;;;;22.70;81.20;;;;;;5015168;28;20319;-82
2022/08/18 00:41:40;;;;;;;;;;;22.70;81.30;;;;;;5013894;28;19929;-79
2022/08/18 00:44:08;;;;;;;;;;;22.60;81.30;;;;;;5024168;28;20399;-80
2022/08/18 00:46:37;;;;;;;;;;;22.60;81.50;;;;;;5017424;28;20019;-79
2022/08/18 00:49:04;;;;;;;;;;;22.60;81.60;;;;;;4995361;28;19964;-78
2022/08/18 00:51:33;;;;;;;;;;;22.60;81.60;;;;;;5013106;28;19926;-81
2022/08/18 00:54:02;;;;;;;;;;;22.60;81.80;;;;;;5016281;28;19933;-77
2022/08/18 00:56:32;;;;;;;;;;;22.60;82.10;;;;;;5016701;28;19925;-80
2022/08/18 00:59:01;;;;;;;;;;;22.50;82.20;;;;;;4997610;28;19965;-80
2022/08/18 01:01:31;;;;;;;;;;;22.50;82.30;;;;;;4998062;28;19932;-80
2022/08/18 01:04:01;;;;;;;;;;;22.50;82.20;;;;;;5023932;28;19931;-78
2022/08/18 01:06:31;;;;;;;;;;;22.40;82.10;;;;;;5014953;28;19949;-77
2022/08/18 01:08:58;;;;;;;;;;;22.40;81.90;;;;;;5022514;28;20007;-78
2022/08/18 01:11:26;;;;;;;;;;;22.40;81.80;;;;;;5018544;28;19925;-81
2022/08/18 01:13:53;;;;;;;;;;;22.40;81.70;;;;;;5010960;28;19935;-79
2022/08/18 01:21:52;;;;;;;;;;;22.30;81.60;;;;;;5019803;28;20005;-80
2022/08/18 01:25:58;;;;;;;;;;;22.30;81.60;;;;;;5020853;28;19952;-78
2022/08/18 01:27:10;;;;;;;;;;;22.30;81.60;;;;;;5003439;28;19925;-80
2022/08/18 01:29:37;;;;;;;;;;;22.30;81.70;;;;;;5002820;28;20014;-78
2022/08/18 01:32:04;;;;;;;;;;;22.30;81.60;;;;;;5013106;28;19957;-81
2022/08/18 01:34:31;;;;;;;;;;;22.20;81.50;;;;;;5013804;28;19925;-79
2022/08/18 01:36:58;;;;;;;;;;;22.20;81.50;;;;;;5013636;28;19932;-77
2022/08/18 01:39:26;;;;;;;;;;;22.20;81.40;;;;;;5018727;28;19959;-79
2022/08/18 01:41:53;;;;;;;;;;;22.20;81.40;;;;;;5085782;23;19933;-78
2022/08/18 01:44:19;;;;;;;;;;;22.10;81.40;;;;;;5010074;23;19930;-79
2022/08/18 01:46:46;;;;;;;;;;;22.10;81.30;;;;;;4976761;28;19926;-81
2022/08/18 01:49:13;;;;;;;;;;;22.10;81.30;;;;;;4965608;28;19970;-79
2022/08/18 01:51:41;;;;;;;;;;;22.10;81.30;;;;;;4974250;28;19959;-80
2022/08/18 01:54:10;;;;;;;;;;;22.10;81.40;;;;;;4960304;28;20365;-80
2022/08/18 01:56:39;;;;;;;;;;;22.10;81.60;;;;;;4974417;28;20463;-79
2022/08/18 01:59:06;;;;;;;;;;;22.10;81.70;;;;;;4962189;28;19926;-81
2022/08/18 02:01:38;;;;;;;;;;;22.00;81.70;;;;;;4981748;28;19948;-81
2022/08/18 02:04:05;;;;;;;;;;;22.00;81.70;;;;;;4976541;28;19927;-80
2022/08/18 02:06:32;;;;;;;;;;;22.00;81.70;;;;;;4981818;28;19993;-80
2022/08/18 02:08:59;;;;;;;;;;;22.00;81.70;;;;;;4958369;28;19937;-80
2022/08/18 02:11:26;;;;;;;;;;;21.90;81.50;;;;;;4980924;28;19972;-79
2022/08/18 02:13:55;;;;;;;;;;;21.90;81.40;;;;;;4963103;28;19926;-80
2022/08/18 02:16:21;;;;;;;;;;;21.90;81.50;;;;;;4980811;28;19940;-80
2022/08/18 02:18:48;;;;;;;;;;;21.90;81.50;;;;;;4978970;28;19980;-79
2022/08/18 02:21:16;;;;;;;;;;;21.90;81.50;;;;;;4976509;28;19933;-80
2022/08/18 02:23:44;;;;;;;;;;;21.90;82.20;;;;;;4972584;28;19933;-81
2022/08/18 02:26:13;;;;;;;;;;;21.80;81.50;;;;;;4975055;28;19926;-80
2022/08/18 02:28:39;;;;;;;;;;;21.80;81.60;;;;;;4976576;28;19930;-81
2022/08/18 02:31:08;;;;;;;;;;;21.80;81.60;;;;;;4972224;28;20052;-80
2022/08/18 02:33:36;;;;;;;;;;;21.80;81.70;;;;;;4976086;28;19932;-81
2022/08/18 02:36:03;;;;;;;;;;;21.80;81.80;;;;;;4960420;28;19941;-80
2022/08/18 02:38:30;;;;;;;;;;;21.80;81.90;;;;;;4961456;28;19929;-79
2022/08/18 02:40:59;;;;;;;;;;;21.70;81.80;;;;;;4976176;28;19926;-80
2022/08/18 02:43:27;;;;;;;;;;;21.70;81.80;;;;;;4978380;28;19934;-79
2022/08/18 02:45:54;;;;;;;;;;;21.70;81.80;;;;;;4977710;28;19965;-79
2022/08/18 02:48:24;;;;;;;;;;;21.70;81.80;;;;;;4971032;28;19934;-80
2022/08/18 02:50:51;;;;;;;;;;;21.70;81.80;;;;;;4974483;28;19932;-78
2022/08/18 02:53:21;;;;;;;;;;;21.70;81.80;;;;;;4965596;28;19957;-79
2022/08/18 02:55:49;;;;;;;;;;;21.70;81.80;;;;;;4958179;28;19926;-80
2022/08/18 02:58:15;;;;;;;;;;;21.60;81.90;;;;;;4958112;28;20020;-79
2022/08/18 03:00:42;;;;;;;;;;;21.60;81.90;;;;;;4976007;28;19930;-80
2022/08/18 03:03:09;;;;;;;;;;;21.60;81.90;;;;;;4975188;28;19937;-78
2022/08/18 03:05:37;;;;;;;;;;;21.60;82.10;;;;;;4956960;28;19926;-79
2022/08/18 03:08:04;;;;;;;;;;;21.60;82.20;;;;;;4973441;28;19934;-81
2022/08/18 03:10:31;;;;;;;;;;;21.60;82.40;;;;;;4959100;28;20036;-79
2022/08/18 03:12:58;;;;;;;;;;;21.60;82.30;;;;;;4960442;28;19933;-80
2022/08/18 03:15:25;;;;;;;;;;;21.50;82.30;;;;;;4954504;28;20033;-79
2022/08/18 03:17:52;;;;;;;;;;;21.50;82.30;;;;;;4957860;28;19926;-78
2022/08/18 03:20:19;;;;;;;;;;;21.50;82.40;;;;;;4954609;28;20033;-80
2022/08/18 03:22:48;;;;;;;;;;;21.50;82.30;;;;;;4960922;28;19933;-80
2022/08/18 03:25:15;;;;;;;;;;;21.50;82.40;;;;;;4973749;28;20348;-80
2022/08/18 03:27:42;;;;;;;;;;;21.50;82.50;;;;;;4961940;28;20024;-79
2022/08/18 03:30:11;;;;;;;;;;;21.50;82.50;;;;;;4975140;28;19928;-79
2022/08/18 03:32:38;;;;;;;;;;;21.50;82.40;;;;;;4956085;28;20460;-79
2022/08/18 03:35:05;;;;;;;;;;;21.40;82.30;;;;;;4974524;28;19976;-80
2022/08/18 03:37:32;;;;;;;;;;;21.40;82.30;;;;;;4975323;28;19934;-78
2022/08/18 03:40:00;;;;;;;;;;;21.40;82.40;;;;;;4959163;28;19925;-78
2022/08/18 03:42:27;;;;;;;;;;;21.40;82.40;;;;;;4980866;28;20421;-80
2022/08/18 03:44:54;;;;;;;;;;;21.40;82.40;;;;;;4966969;28;19926;-78
2022/08/18 03:47:21;;;;;;;;;;;21.40;82.50;;;;;;4974266;28;19930;-81
2022/08/18 03:49:48;;;;;;;;;;;21.30;82.40;;;;;;4971535;28;19926;-79
2022/08/18 03:52:15;;;;;;;;;;;21.30;82.50;;;;;;4956530;28;19949;-80
2022/08/18 03:54:42;;;;;;;;;;;21.30;82.50;;;;;;4980494;28;19926;-80
2022/08/18 03:57:11;;;;;;;;;;;21.30;82.60;;;;;;4980172;28;19926;-79
2022/08/18 03:59:40;;;;;;;;;;;21.30;82.60;;;;;;4969637;28;19982;-80
2022/08/18 04:02:07;;;;;;;;;;;21.30;82.60;;;;;;4957893;28;20014;-79
2022/08/18 04:04:34;;;;;;;;;;;21.30;82.60;;;;;;4958288;28;19934;-80
2022/08/18 04:07:03;;;;;;;;;;;21.30;82.80;;;;;;4956356;28;19942;-79
2022/08/18 04:09:30;;;;;;;;;;;21.30;82.90;;;;;;4973353;28;19933;-80
2022/08/18 04:11:58;;;;;;;;;;;21.20;83.00;;;;;;4975643;28;20381;-77
2022/08/18 04:14:28;;;;;;;;;;;21.20;83.20;;;;;;4974972;28;19926;-78
2022/08/18 04:16:55;;;;;;;;;;;21.20;83.40;;;;;;4980033;28;19957;-79
2022/08/18 04:19:22;;;;;;;;;;;21.20;83.50;;;;;;4957757;28;19926;-80
2022/08/18 04:21:51;;;;;;;;;;;21.20;83.60;;;;;;4977773;28;20148;-78
2022/08/18 04:24:18;;;;;;;;;;;21.20;83.70;;;;;;4971176;28;19973;-80
2022/08/18 04:26:46;;;;;;;;;;;21.20;83.60;;;;;;4952127;28;20289;-79
2022/08/18 04:29:14;;;;;;;;;;;21.20;83.90;;;;;;4956910;28;20352;-77
2022/08/18 04:31:42;;;;;;;;;;;21.10;83.80;;;;;;4958655;28;19930;-79
2022/08/18 04:34:09;;;;;;;;;;;21.10;83.80;;;;;;4972019;28;19962;-79
2022/08/18 04:36:36;;;;;;;;;;;21.10;83.80;;;;;;4969452;28;19934;-77
2022/08/18 04:39:06;;;;;;;;;;;21.10;84.00;;;;;;4969126;28;19934;-79
2022/08/18 04:41:33;;;;;;;;;;;21.10;84.10;;;;;;4956359;28;20411;-78
2022/08/18 04:44:01;;;;;;;;;;;21.10;84.20;;;;;;4972282;28;19949;-77
2022/08/18 04:46:29;;;;;;;;;;;21.00;84.10;;;;;;4969904;28;19934;-77
2022/08/18 04:48:58;;;;;;;;;;;21.00;84.20;;;;;;4952363;28;20353;-77
2022/08/18 04:51:27;;;;;;;;;;;21.00;84.20;;;;;;4972496;28;19930;-76
2022/08/18 04:53:53;;;;;;;;;;;21.00;84.20;;;;;;4969329;28;19933;-77
2022/08/18 04:56:24;;;;;;;;;;;21.00;84.30;;;;;;4973698;28;19921;-75
2022/08/18 04:58:52;;;;;;;;;;;21.00;84.40;;;;;;4969340;28;20013;-77
2022/08/18 05:01:20;;;;;;;;;;;21.00;84.30;;;;;;4953776;28;20369;-76
2022/08/18 05:03:48;;;;;;;;;;;20.90;84.30;;;;;;4969899;28;20400;-78
2022/08/18 05:06:17;;;;;;;;;;;20.90;84.30;;;;;;4959252;28;20009;-77
2022/08/18 05:08:44;;;;;;;;;;;20.90;84.40;;;;;;4954693;28;20393;-76
2022/08/18 05:11:10;;;;;;;;;;;20.90;84.40;;;;;;4953033;28;20305;-76
2022/08/18 05:13:37;;;;;;;;;;;20.90;84.60;;;;;;4969403;28;20017;-76
2022/08/18 05:16:05;;;;;;;;;;;20.90;84.80;;;;;;4971205;28;19938;-76
2022/08/18 05:18:33;;;;;;;;;;;20.90;85.00;;;;;;4947094;28;19930;-76
2022/08/18 05:21:00;;;;;;;;;;;20.80;85.00;;;;;;4973799;28;19930;-76
2022/08/18 05:23:30;;;;;;;;;;;20.80;85.00;;;;;;4971119;28;20020;-77
2022/08/18 05:25:58;;;;;;;;;;;20.80;85.20;;;;;;4970280;28;19984;-76
2022/08/18 05:28:24;;;;;;;;;;;20.80;85.30;;;;;;4967953;28;20009;-76
2022/08/18 05:30:52;;;;;;;;;;;20.80;85.30;;;;;;4951162;28;20354;-76
2022/08/18 05:33:18;;;;;;;;;;;20.80;85.40;;;;;;4955042;28;19926;-76
2022/08/18 05:35:47;;;;;;;;;;;20.80;85.50;;;;;;4970959;28;19927;-75
2022/08/18 05:38:32;;;;;;;;;;;20.80;85.40;;;;;;4966274;28;19937;-75
2022/08/18 05:41:06;;;;;;;;;;;20.80;85.40;;;;;;4954283;28;20443;-76
2022/08/18 05:43:33;;;;;;;;;;;20.80;85.40;;;;;;4909840;28;1810894;-76
2022/08/18 05:46:02;;;;;;;;;;;20.70;85.30;;;;;;4969040;28;19973;-77
2022/08/18 05:48:29;;;;;;;;;;;20.70;85.30;;;;;;4970073;28;20012;-76
2022/08/18 05:50:56;;;;;;;;;;;20.70;85.20;;;;;;4957010;28;19937;-76
2022/08/18 05:56:45;;;;;;;;;;;20.70;85.20;;;;;;4967157;28;20319;-76
2022/08/18 05:58:59;;;;;;;;;;;20.60;85.10;;;;;;4970332;28;19926;-76
2022/08/18 06:01:28;;;;;;;;;;;20.60;85.10;;;;;;4954127;28;20340;-75
2022/08/18 06:03:58;;;;;;;;;;;20.60;85.10;;;;;;4959890;28;19933;-77
2022/08/18 06:06:26;;;;;;;;;;;20.60;85.10;;;;;;4969633;28;19926;-76
2022/08/18 06:08:56;;;;;;;;;;;20.60;85.10;;;;;;4954148;28;20044;-77
2022/08/18 06:11:25;;;;;;;;;;;20.60;85.00;;;;;;4953890;28;19937;-76
2022/08/18 06:13:52;;;;;;;;;;;20.60;85.10;;;;;;4965107;28;20021;-76
2022/08/18 06:16:22;;;;;;;;;;;20.60;85.00;;;;;;4972814;28;19927;-77
2022/08/18 06:18:53;;;;;;;;;;;20.60;85.00;;;;;;4965375;28;20366;-75
2022/08/18 06:21:30;;;;;;;;;;;20.60;85.00;;;;;;4968046;28;19926;-76
2022/08/18 06:24:02;;;;;;;;;;;20.60;85.00;;;;;;4953927;28;19973;-76
2022/08/18 06:26:38;;;;;;;;;;;20.60;85.10;;;;;;4956711;28;19934;-76
2022/08/18 06:29:12;;;;;;;;;;;20.60;85.10;;;;;;4950676;28;19993;-76
2022/08/18 06:31:43;;;;;;;;;;;20.60;85.10;;;;;;4969456;28;19926;-77
2022/08/18 06:34:15;;;;;;;;;;;20.50;85.00;;;;;;4972201;28;19934;-77
2022/08/18 06:36:47;;;;;;;;;;;20.50;85.10;;;;;;4969731;28;19946;-77
2022/08/18 06:39:20;;;;;;;;;;;20.50;85.00;;;;;;4976746;28;19926;-78
2022/08/18 06:41:50;;;;;;;;;;;20.50;85.00;;;;;;4962527;28;19936;-77
2022/08/18 06:44:21;;;;;;;;;;;20.50;84.90;;;;;;4972286;28;19933;-77
2022/08/18 06:46:50;;;;;;;;;;;20.50;85.00;;;;;;4955819;28;20386;-77
2022/08/18 06:49:21;;;;;;;;;;;20.50;85.10;;;;;;4976964;28;19980;-79
2022/08/18 06:51:48;;;;;;;;;;;20.50;85.20;;;;;;4974178;28;19926;-79
2022/08/18 06:54:29;;;;;;;;;;;20.50;85.20;;;;;;4973257;28;19926;-77
2022/08/18 06:56:57;;;;;;;;;;;20.50;85.20;;;;;;4974447;28;19980;-77
2022/08/18 06:59:26;;;;;;;;;;;20.50;85.30;;;;;;4973134;28;19926;-77
2022/08/18 07:01:55;;;;;;;;;;;20.40;85.20;;;;;;4961211;28;19932;-77
2022/08/18 07:04:46;;;;;;;;;;;20.50;85.30;;;;;;4960875;28;19949;-78
2022/08/18 07:07:19;;;;;;;;;;;20.40;85.30;;;;;;4957369;28;19952;-77
2022/08/18 07:09:46;;;;;;;;;;;20.50;85.40;;;;;;4961945;28;19932;-77
2022/08/18 07:12:21;;;;;;;;;;;20.40;85.30;;;;;;4972853;28;19934;-77
2022/08/18 07:14:50;;;;;;;;;;;20.40;85.30;;;;;;4974392;28;19934;-77
2022/08/18 07:17:21;;;;;;;;;;;20.40;85.30;;;;;;4970607;28;20345;-78
2022/08/18 07:19:54;;;;;;;;;;;20.40;85.30;;;;;;4960006;28;19981;-78
2022/08/18 07:22:21;;;;;;;;;;;20.40;85.30;;;;;;4969608;28;19930;-78
2022/08/18 07:24:49;;;;;;;;;;;20.40;85.20;;;;;;4957477;28;19934;-77
2022/08/18 07:27:17;;;;;;;;;;;20.50;85.30;;;;;;4955559;28;20396;-75
2022/08/18 07:30:00;;;;;;;;;;;20.40;85.30;;;;;;4964795;28;19929;-75
2022/08/18 07:32:32;;;;;;;;;;;20.40;85.30;;;;;;4968020;28;20321;-76
2022/08/18 07:35:02;;;;;;;;;;;20.40;85.40;;;;;;4971992;28;19930;-76
2022/08/18 07:37:31;;;;;;;;;;;20.50;85.60;;;;;;4977975;28;19926;-77
2022/08/18 07:40:01;;;;;;;;;;;20.50;85.60;;;;;;4950760;28;19949;-77
2022/08/18 07:42:31;;;;;;;;;;;20.40;85.60;;;;;;4971254;28;19937;-77
2022/08/18 07:45:01;;;;;;;;;;;20.50;85.80;;;;;;4956819;28;19949;-76
2022/08/18 07:47:31;;;;;;;;;;;20.40;85.80;;;;;;4969637;28;19926;-76
2022/08/18 07:49:58;;;;;;;;;;;20.40;85.80;;;;;;4973475;28;20032;-77
2022/08/18 07:52:28;;;;;;;;;;;20.40;85.80;;;;;;4980150;28;20364;-76
2022/08/18 07:54:58;;;;;;;;;;;20.40;85.80;;;;;;4966479;28;19926;-77
2022/08/18 07:57:29;;;;;;;;;;;20.40;85.80;;;;;;4962027;28;20317;-76
2022/08/18 08:00:01;;;;;;;;;;;20.40;85.90;;;;;;4955953;28;20365;-77
2022/08/18 08:02:33;;;;;;;;;;;20.50;86.20;;;;;;4954529;28;19934;-77
2022/08/18 08:05:04;;;;;;;;;;;20.50;86.40;;;;;;4967428;28;20575;-76
2022/08/18 08:07:36;;;;;;;;;;;20.40;86.20;;;;;;4969456;28;19926;-77
2022/08/18 08:10:11;;;;;;;;;;;20.50;86.40;;;;;;4972739;28;19934;-76
2022/08/18 08:12:41;;;;;;;;;;;20.50;86.30;;;;;;4951923;28;20231;-76
2022/08/18 08:15:21;;;;;;;;;;;20.50;86.40;;;;;;4969919;28;19934;-76
2022/08/18 08:17:53;;;;;;;;;;;20.40;86.30;;;;;;4973062;28;19938;-76
2022/08/18 08:20:25;;;;;;;;;;;20.40;86.20;;;;;;4980450;28;19925;-76
2022/08/18 08:23:08;;;;;;;;;;;20.40;86.30;;;;;;4969525;28;19933;-77
2022/08/18 08:25:37;;;;;;;;;;;20.40;86.40;;;;;;4956456;28;19926;-77
2022/08/18 08:28:08;;;;;;;;;;;20.40;86.50;;;;;;4971867;28;19934;-77
2022/08/18 08:30:38;;;;;;;;;;;20.40;86.50;;;;;;4970358;28;20301;-76
2022/08/18 08:33:10;;;;;;;;;;;20.40;86.60;;;;;;4951126;28;19933;-76
2022/08/18 08:35:42;;;;;;;;;;;20.40;86.50;;;;;;4956535;28;20329;-77
2022/08/18 08:38:11;;;;;;;;;;;20.40;86.70;;;;;;4978296;28;19926;-76
2022/08/18 08:40:41;;;;;;;;;;;20.40;86.80;;;;;;4962983;28;19926;-76
2022/08/18 08:43:10;;;;;;;;;;;20.40;87.00;;;;;;4956800;28;19966;-77
2022/08/18 08:45:39;;;;;;;;;;;20.40;87.20;;;;;;4956380;28;20400;-77
2022/08/18 08:48:22;;;;;;;;;;;20.50;87.40;;;;;;4972437;28;19934;-78
2022/08/18 08:50:54;;;;;;;;;;;20.50;87.40;;;;;;4954281;28;19926;-77
2022/08/18 08:53:25;;;;;;;;;;;20.50;87.60;;;;;;4961248;28;20356;-76
2022/08/18 08:55:53;;;;;;;;;;;20.50;87.40;;;;;;4949767;28;19926;-77
2022/08/18 08:58:25;;;;;;;;;;;20.50;87.30;;;;;;4974172;28;19930;-76
2022/08/18 09:00:52;;;;;;;;;;;20.50;87.30;;;;;;4968838;28;19926;-76
2022/08/18 09:03:25;;;;;;;;;;;20.50;87.30;;;;;;4971007;28;20439;-76
2022/08/18 09:05:56;;;;;;;;;;;20.50;87.30;;;;;;4969955;28;19968;-77
2022/08/18 09:08:39;;;;;;;;;;;20.60;87.50;;;;;;4964487;28;19926;-77
2022/08/18 09:11:17;;;;;;;;;;;20.60;87.50;;;;;;4969273;28;19926;-76
2022/08/18 09:14:06;;;;;;;;;;;20.60;87.30;;;;;;4957813;28;19930;-78
2022/08/18 09:16:41;;;;;;;;;;;20.60;87.40;;;;;;4953292;28;19926;-76
2022/08/18 09:19:21;;;;;;;;;;;20.60;87.30;;;;;;4971583;28;19926;-75
2022/08/18 09:21:51;;;;;;;;;;;20.60;87.30;;;;;;4967157;28;19926;-76
2022/08/18 09:24:21;;;;;;;;;;;20.60;87.30;;;;;;4968190;28;19926;-77
2022/08/18 09:26:51;;;;;;;;;;;20.60;87.20;;;;;;4970463;28;19930;-77
2022/08/18 09:29:22;;;;;;;;;;;20.60;87.10;;;;;;4966613;28;19926;-77
2022/08/18 09:31:49;;;;;;;;;;;20.70;87.20;;;;;;4972234;28;20032;-77
2022/08/18 09:34:31;;;;;;;;;;;20.70;87.40;;;;;;4975718;28;19930;-76
2022/08/18 09:37:03;;;;;;;;;;;20.70;87.50;;;;;;4968603;28;19926;-77
2022/08/18 09:42:27;;;;;;;;;;;20.70;87.30;;;;;;4956523;28;19953;-77
2022/08/18 09:45:00;;;;;;;;;;;20.70;87.20;;;;;;4954997;28;19926;-77
2022/08/18 09:47:46;;;;;;;;;;;20.70;87.10;;;;;;4966000;28;19926;-77
2022/08/18 09:50:28;;;;;;;;;;;20.80;87.00;;;;;;4966507;28;19965;-76
2022/08/18 09:53:18;;;;;;;;;;;20.80;87.10;;;;;;4962759;28;19936;-77
2022/08/18 09:55:53;;;;;;;;;;;20.80;86.90;;;;;;4944577;28;19934;-77
2022/08/18 09:58:41;;;;;;;;;;;20.80;87.00;;;;;;4973415;28;19926;-77
2022/08/18 10:01:20;;;;;;;;;;;20.80;87.30;;;;;;4951351;28;19933;-78
2022/08/18 10:04:02;;;;;;;;;;;20.80;87.20;;;;;;4962729;28;20400;-77
2022/08/18 10:06:30;;;;;;;;;;;20.90;87.70;;;;;;4969631;28;19934;-77
2022/08/18 10:09:03;;;;;;;;;;;20.90;87.80;;;;;;4966524;28;20013;-78
2022/08/18 10:11:45;;;;;;;;;;;20.90;87.60;;;;;;4975002;28;19980;-78
2022/08/18 10:14:22;;;;;;;;;;;21.00;87.60;;;;;;4953187;28;19933;-76
2022/08/18 10:16:57;;;;;;;;;;;21.00;87.80;;;;;;4971349;28;19926;-76
2022/08/18 10:19:30;;;;;;;;;;;21.00;87.80;;;;;;4976476;28;19930;-76
2022/08/18 10:22:01;;;;;;;;;;;21.00;87.70;;;;;;4966401;28;19926;-77
2022/08/18 10:24:30;;;;;;;;;;;21.00;87.80;;;;;;4958615;28;19933;-78
2022/08/18 10:27:01;;;;;;;;;;;21.00;87.60;;;;;;4977225;28;19984;-77
2022/08/18 10:29:46;;;;;;;;;;;21.10;88.50;;;;;;4980052;28;19981;-76
2022/08/18 10:32:22;;;;;;;;;;;21.10;87.80;;;;;;4978145;28;20531;-78
2022/08/18 10:34:51;;;;;;;;;;;21.10;87.70;;;;;;4948747;28;19933;-76
2022/08/18 10:37:19;;;;;;;;;;;21.20;88.80;;;;;;4970649;28;19958;-76
2022/08/18 10:39:47;;;;;;;;;;;21.20;88.80;;;;;;4969424;28;19958;-77
2022/08/18 10:42:22;;;;;;;;;;;21.20;88.60;;;;;;4975482;28;19930;-76
2022/08/18 10:44:50;;;;;;;;;;;21.20;88.40;;;;;;4966788;28;20243;-77
2022/08/18 10:47:23;;;;;;;;;;;21.20;88.20;;;;;;4974969;28;20404;-77
2022/08/18 10:49:50;;;;;;;;;;;21.30;88.40;;;;;;4966969;28;19926;-76
2022/08/18 10:52:37;;;;;;;;;;;21.30;88.20;;;;;;4971317;28;20025;-77
2022/08/18 10:55:09;;;;;;;;;;;21.30;88.10;;;;;;4966099;28;20304;-78
2022/08/18 10:57:54;;;;;;;;;;;21.30;88.00;;;;;;4965730;28;19929;-77
2022/08/18 11:00:22;;;;;;;;;;;21.30;87.70;;;;;;4969353;28;19926;-76
2022/08/18 11:03:05;;;;;;;;;;;21.30;87.40;;;;;;4968107;28;19973;-76
2022/08/18 11:05:31;;;;;;;;;;;21.30;87.40;;;;;;4966748;28;20020;-76
2022/08/18 11:07:59;;;;;;;;;;;21.40;87.80;;;;;;4960780;28;19973;-77
2022/08/18 11:10:35;;;;;;;;;;;21.40;87.90;;;;;;4968392;28;19926;-76
2022/08/18 11:13:07;;;;;;;;;;;21.40;88.20;;;;;;4973151;28;20282;-76
2022/08/18 11:15:36;;;;;;;;;;;21.40;87.80;;;;;;4958683;28;19926;-76
2022/08/18 11:18:13;;;;;;;;;;;21.40;87.60;;;;;;4972043;28;20620;-76
2022/08/18 11:20:41;;;;;;;;;;;21.40;87.50;;;;;;4953227;28;19926;-78
2022/08/18 11:23:12;;;;;;;;;;;21.50;87.60;;;;;;4954820;28;19926;-78
2022/08/18 11:25:41;;;;;;;;;;;21.50;88.10;;;;;;4956625;28;20301;-77
2022/08/18 11:28:14;;;;;;;;;;;21.50;87.80;;;;;;4969928;28;19926;-77
2022/08/18 11:30:43;;;;;;;;;;;21.50;88.30;;;;;;4967223;28;19980;-76
2022/08/18 11:33:15;;;;;;;;;;;21.50;88.40;;;;;;4972160;28;19933;-77
2022/08/18 11:35:46;;;;;;;;;;;21.60;88.30;;;;;;4971340;28;19926;-77
2022/08/18 11:38:14;;;;;;;;;;;21.60;88.00;;;;;;4972760;28;20373;-77
2022/08/18 11:40:42;;;;;;;;;;;21.60;87.80;;;;;;4952709;28;19933;-76
2022/08/18 11:43:11;;;;;;;;;;;21.60;87.70;;;;;;4967181;28;20411;-77
2022/08/18 11:45:51;;;;;;;;;;;21.60;87.40;;;;;;4973197;28;20376;-77
2022/08/18 11:48:21;;;;;;;;;;;21.70;87.80;;;;;;4967389;28;19988;-77
2022/08/18 11:50:49;;;;;;;;;;;21.70;87.80;;;;;;4959667;28;19980;-76
2022/08/18 11:53:21;;;;;;;;;;;21.70;87.90;;;;;;4970907;28;19926;-76
2022/08/18 11:56:02;;;;;;;;;;;21.70;87.70;;;;;;4971374;28;19942;-77
2022/08/18 11:58:39;;;;;;;;;;;21.80;88.50;;;;;;4963470;28;20384;-78
2022/08/18 12:01:07;;;;;;;;;;;21.80;88.60;;;;;;4971154;28;19930;-76
2022/08/18 12:03:41;;;;;;;;;;;21.80;89.00;;;;;;4965860;28;19961;-78
2022/08/18 12:06:20;;;;;;;;;;;21.90;89.00;;;;;;4970787;28;19926;-76
2022/08/18 12:08:52;;;;;;;;;;;21.90;88.40;;;;;;4967909;28;20029;-78
2022/08/18 12:11:20;;;;;;;;;;;21.90;88.00;;;;;;4970655;28;19934;-78
2022/08/18 12:13:48;;;;;;;;;;;21.90;88.00;;;;;;4956028;28;19930;-78
2022/08/18 12:16:18;;;;;;;;;;;21.90;87.60;;;;;;4965407;28;19981;-77
2022/08/18 12:18:46;;;;;;;;;;;22.00;87.60;;;;;;4973903;28;19925;-77
2022/08/18 12:21:13;;;;;;;;;;;22.00;87.60;;;;;;4973345;28;19961;-77
2022/08/18 12:23:41;;;;;;;;;;;22.00;87.70;;;;;;4965348;28;19926;-78
2022/08/18 12:26:09;;;;;;;;;;;22.00;87.70;;;;;;4971640;28;19926;-76
2022/08/18 12:28:36;;;;;;;;;;;22.10;88.40;;;;;;4970463;28;20000;-77
2022/08/18 12:31:03;;;;;;;;;;;22.20;88.70;;;;;;4971778;28;19934;-78
2022/08/18 12:33:30;;;;;;;;;;;22.20;88.80;;;;;;4969073;28;20586;-78
2022/08/18 12:35:58;;;;;;;;;;;22.30;89.20;;;;;;4965746;28;19927;-76
2022/08/18 12:38:25;;;;;;;;;;;22.30;89.10;;;;;;4958417;28;19937;-77
2022/08/18 12:40:52;;;;;;;;;;;22.30;89.80;;;;;;4968440;28;19930;-78
2022/08/18 12:43:19;;;;;;;;;;;22.30;89.00;;;;;;4968570;28;19942;-77
2022/08/18 12:45:46;;;;;;;;;;;22.30;88.90;;;;;;4973234;28;19930;-77
2022/08/18 12:48:13;;;;;;;;;;;22.40;89.20;;;;;;4964393;28;20013;-77
2022/08/18 12:50:40;;;;;;;;;;;22.30;88.70;;;;;;4971408;28;19980;-77
2022/08/18 12:53:08;;;;;;;;;;;22.30;88.30;;;;;;4971808;28;19933;-77
2022/08/18 12:55:37;;;;;;;;;;;22.40;88.30;;;;;;4970260;28;19938;-76
2022/08/18 12:58:04;;;;;;;;;;;22.40;88.10;;;;;;4963582;28;20001;-76
2022/08/18 13:00:32;;;;;;;;;;;22.40;87.80;;;;;;4969800;28;20020;-76
2022/08/18 13:02:59;;;;;;;;;;;22.40;88.60;;;;;;4967910;28;19933;-78
2022/08/18 13:05:27;;;;;;;;;;;22.40;88.70;;;;;;4958078;28;19968;-77
2022/08/18 13:07:54;;;;;;;;;;;22.50;88.60;;;;;;4946441;28;19926;-78
2022/08/18 13:10:22;;;;;;;;;;;22.50;88.60;;;;;;4969236;28;19936;-75
2022/08/18 13:12:49;;;;;;;;;;;22.50;88.50;;;;;;4961102;28;20009;-78
2022/08/18 13:15:16;;;;;;;;;;;22.60;88.60;;;;;;4966962;28;19930;-76
2022/08/18 13:17:43;;;;;;;;;;;22.50;88.40;;;;;;4951280;28;19926;-75
2022/08/18 13:20:14;;;;;;;;;;;22.60;88.40;;;;;;4969045;28;19980;-77
2022/08/18 13:22:41;;;;;;;;;;;22.60;88.50;;;;;;4966799;28;20385;-76
2022/08/18 13:25:10;;;;;;;;;;;22.60;88.10;;;;;;4962317;28;19969;-78
2022/08/18 13:27:39;;;;;;;;;;;22.60;88.30;;;;;;4965616;28;19984;-78
2022/08/18 13:30:08;;;;;;;;;;;22.70;88.40;;;;;;4967278;28;19934;-78
2022/08/18 13:32:35;;;;;;;;;;;22.70;88.10;;;;;;4962454;28;20144;-78
2022/08/18 13:35:02;;;;;;;;;;;22.70;88.30;;;;;;4972671;28;20008;-76
2022/08/18 13:37:29;;;;;;;;;;;22.70;87.90;;;;;;4953115;28;19934;-78
2022/08/18 13:39:56;;;;;;;;;;;22.70;88.00;;;;;;4952305;28;19930;-78
2022/08/18 13:42:23;;;;;;;;;;;22.70;87.90;;;;;;4966822;28;19946;-77
2022/08/18 13:44:51;;;;;;;;;;;22.70;87.50;;;;;;4949993;28;19932;-78
2022/08/18 13:47:18;;;;;;;;;;;22.70;87.70;;;;;;4969545;28;19926;-77
2022/08/18 13:49:45;;;;;;;;;;;22.80;87.70;;;;;;4976264;28;19964;-78
2022/08/18 13:52:13;;;;;;;;;;;22.80;88.60;;;;;;4974206;28;19934;-76
2022/08/18 13:54:42;;;;;;;;;;;22.80;88.10;;;;;;4968063;28;19926;-77
2022/08/18 13:57:09;;;;;;;;;;;22.80;88.10;;;;;;4969744;28;19926;-76
2022/08/18 13:59:37;;;;;;;;;;;22.80;87.90;;;;;;4966646;28;20396;-78
2022/08/18 14:02:06;;;;;;;;;;;22.80;88.00;;;;;;4965967;28;19963;-78
2022/08/18 14:04:34;;;;;;;;;;;22.90;87.90;;;;;;4971059;28;19937;-78
2022/08/18 14:07:02;;;;;;;;;;;22.90;87.90;;;;;;4969134;28;20021;-77
2022/08/18 14:09:29;;;;;;;;;;;22.90;87.80;;;;;;4975582;28;20006;-78
2022/08/18 14:11:57;;;;;;;;;;;22.90;87.70;;;;;;4975506;28;19926;-78
2022/08/18 14:14:24;;;;;;;;;;;22.90;87.60;;;;;;4953364;28;20016;-77
2022/08/18 14:16:51;;;;;;;;;;;22.90;87.60;;;;;;4973551;28;19927;-77
2022/08/18 14:27:34;;;;;;;;;;;22.90;87.70;;;;;;4972895;28;20028;-77
2022/08/18 14:30:01;;;;;;;;;;;23.00;87.70;;;;;;4972300;28;19926;-78
2022/08/18 14:32:29;;;;;;;;;;;23.00;87.70;;;;;;4965453;28;19981;-77
2022/08/18 14:34:57;;;;;;;;;;;23.00;87.70;;;;;;4970505;28;19926;-78
2022/08/18 14:37:24;;;;;;;;;;;23.00;87.60;;;;;;4968814;28;19934;-77
2022/08/18 14:39:51;;;;;;;;;;;23.00;87.40;;;;;;4969524;28;20658;-78
2022/08/18 14:42:19;;;;;;;;;;;23.00;87.40;;;;;;4964208;28;20418;-76
2022/08/18 14:44:46;;;;;;;;;;;23.00;87.30;;;;;;4973444;28;19941;-77
2022/08/18 14:47:14;;;;;;;;;;;23.00;87.30;;;;;;4969114;28;20502;-78
2022/08/18 14:49:41;;;;;;;;;;;23.00;87.20;;;;;;4973015;28;19949;-78
2022/08/18 14:52:10;;;;;;;;;;;23.00;87.10;;;;;;4965385;28;19941;-78